Terminal Aerodrome Forecast
Issued by NWS

Home | Current Version | Previous Version | Graphics & Text | Print | Product List | Glossary On
Versions: 1 2 3 4 5 6 7 8 9 10 11 12 13 14 15 16 17 18 19 20 21 22 23 24
000
FTUS43 KBIS 262300
TAFJMS
TAF
KJMS 262339Z 2700/2724 29020G29KT P6SM BKN060
     FM270200 30016G24KT P6SM SCT060
     FM270500 31015G23KT P6SM BKN030
     FM271700 35017G25KT P6SM BKN040
     FM272100 35015G23KT P6SM SCT060=

USA.gov is the U.S. government's official web portal to all federal, state and local government web resources and services.